createdAt,value
2022-11-15T00:04:40.683Z,1003.11
2022-11-15T00:09:44.890Z,1003.07
2022-11-15T00:14:41.572Z,1002.95
2022-11-15T00:19:40.484Z,1002.89
2022-11-15T00:24:40.411Z,1002.85
2022-11-15T00:29:40.354Z,1002.82
2022-11-15T00:34:40.315Z,1002.90
2022-11-15T00:39:40.236Z,1002.88
2022-11-15T00:44:40.174Z,1002.89
2022-11-15T00:49:40.091Z,1002.88
2022-11-15T00:54:40.067Z,1002.94
2022-11-15T00:59:39.972Z,1002.84
2022-11-15T01:04:39.900Z,1002.85
2022-11-15T01:09:39.830Z,1002.71
2022-11-15T01:14:39.801Z,1002.77
2022-11-15T01:19:39.700Z,1002.69
2022-11-15T01:24:39.656Z,1002.71
2022-11-15T01:29:39.595Z,1002.64
2022-11-15T01:34:39.520Z,1002.60
2022-11-15T01:39:39.469Z,1002.61
2022-11-15T01:44:39.385Z,1002.53
2022-11-15T01:49:39.629Z,1002.39
2022-11-15T01:54:39.291Z,1002.35
2022-11-15T01:59:39.213Z,1002.29
2022-11-15T02:04:39.138Z,1002.19
2022-11-15T02:09:46.027Z,1002.20
2022-11-15T02:14:46.953Z,1002.23
2022-11-15T02:19:38.900Z,1002.12
2022-11-15T02:24:38.835Z,1002.07
2022-11-15T02:29:38.772Z,1002.21
2022-11-15T02:34:38.716Z,1002.12
2022-11-15T02:39:38.703Z,1001.95
2022-11-15T02:44:38.622Z,1001.91
2022-11-15T02:49:38.556Z,1001.86
2022-11-15T02:54:38.460Z,1001.80
2022-11-15T02:59:38.450Z,1001.75
2022-11-15T03:04:38.335Z,1001.80
2022-11-15T03:09:38.250Z,1001.71
2022-11-15T03:14:38.244Z,1001.69
2022-11-15T03:19:38.142Z,1001.59
2022-11-15T03:24:38.061Z,1001.54
2022-11-15T03:29:37.990Z,1001.54
2022-11-15T03:34:37.910Z,1001.46
2022-11-15T03:39:37.869Z,1001.43
2022-11-15T03:44:44.787Z,1001.43
2022-11-15T03:49:37.707Z,1001.50
2022-11-15T03:54:44.676Z,1001.48
2022-11-15T03:59:37.618Z,1001.43
2022-11-15T04:04:37.565Z,1001.29
2022-11-15T04:09:37.455Z,1001.30
2022-11-15T04:14:41.265Z,1001.28
2022-11-15T04:19:37.401Z,1001.33
2022-11-15T04:24:37.274Z,1001.33
2022-11-15T04:29:37.285Z,1001.17
2022-11-15T04:34:37.165Z,1001.17
2022-11-15T04:39:37.062Z,1001.16
2022-11-15T04:44:37.072Z,1001.18
2022-11-15T04:49:36.924Z,1001.15
2022-11-15T04:54:36.871Z,1001.03
2022-11-15T04:59:36.841Z,1001.15
2022-11-15T05:04:36.762Z,1001.08
2022-11-15T05:09:36.762Z,1001.05
2022-11-15T05:14:37.010Z,1001.00
2022-11-15T05:19:36.528Z,1001.11
2022-11-15T05:24:36.491Z,1001.04
2022-11-15T05:29:36.423Z,1000.87
2022-11-15T05:34:36.380Z,1000.91
2022-11-15T05:39:36.324Z,1000.90
2022-11-15T05:44:36.273Z,1000.96
2022-11-15T05:49:36.153Z,1000.91
2022-11-15T05:54:36.111Z,1000.96
2022-11-15T05:59:36.010Z,1001.00
2022-11-15T06:04:35.970Z,1000.88
2022-11-15T06:09:35.878Z,1000.96
2022-11-15T06:14:35.900Z,1000.89
2022-11-15T06:19:35.737Z,1000.95
2022-11-15T06:24:35.731Z,1000.91
2022-11-15T06:29:35.648Z,1000.96
2022-11-15T06:34:35.548Z,1000.93
2022-11-15T06:39:35.529Z,1001.09
2022-11-15T06:44:35.457Z,1001.13
2022-11-15T06:49:35.365Z,1001.10
2022-11-15T06:54:35.347Z,1001.02
2022-11-15T06:59:39.322Z,1001.06
2022-11-15T07:04:36.214Z,1001.09
2022-11-15T07:09:35.157Z,1000.99
2022-11-15T07:14:35.026Z,1001.05
2022-11-15T07:19:34.998Z,1001.09
2022-11-15T07:24:34.959Z,1001.17
2022-11-15T07:29:34.854Z,1001.19
2022-11-15T07:34:35.147Z,1001.11
2022-11-15T07:39:34.707Z,1001.09
2022-11-15T07:44:34.630Z,1001.25
2022-11-15T07:49:34.612Z,1001.10
2022-11-15T07:54:34.501Z,1001.08
2022-11-15T07:59:34.451Z,1000.99
2022-11-15T08:04:34.421Z,1000.91
2022-11-15T08:09:34.342Z,1000.97
2022-11-15T08:14:34.229Z,1000.96
2022-11-15T08:19:34.193Z,1000.98
2022-11-15T08:24:34.118Z,1000.82
2022-11-15T08:29:34.024Z,1000.86
2022-11-15T08:34:33.962Z,1000.95
2022-11-15T08:39:33.937Z,1000.93
2022-11-15T08:44:33.821Z,1000.99
2022-11-15T08:49:33.772Z,1000.87
2022-11-15T08:54:33.751Z,1000.87
2022-11-15T08:59:33.627Z,1000.86
2022-11-15T09:04:33.816Z,1000.78
2022-11-15T09:09:33.861Z,1000.79
2022-11-15T09:14:33.440Z,1000.78
2022-11-15T09:19:33.464Z,1000.70
2022-11-15T09:24:33.330Z,1000.64
2022-11-15T09:29:33.222Z,1000.64
2022-11-15T09:34:33.224Z,1000.79
2022-11-15T09:39:33.102Z,1000.68
2022-11-15T09:44:33.051Z,1000.62
2022-11-15T09:49:32.990Z,1000.59
2022-11-15T09:59:33.884Z,1000.47
2022-11-15T10:04:32.865Z,1000.41
2022-11-15T10:09:32.726Z,1000.40
2022-11-15T10:14:32.642Z,1000.36
2022-11-15T10:19:32.585Z,1000.31
2022-11-15T10:24:32.534Z,1000.18
2022-11-15T10:29:32.453Z,1000.06
2022-11-15T10:34:32.405Z,999.98
2022-11-15T10:39:32.300Z,999.87
2022-11-15T10:44:32.255Z,999.89
2022-11-15T10:49:32.187Z,999.87
2022-11-15T10:54:32.164Z,999.78
2022-11-15T10:59:37.645Z,999.76
2022-11-15T11:04:33.010Z,999.75
2022-11-15T11:09:32.032Z,999.61
2022-11-15T11:14:32.066Z,999.52
2022-11-15T11:19:31.812Z,999.47
2022-11-15T11:24:31.805Z,999.42
2022-11-15T11:29:31.776Z,999.34
2022-11-15T11:34:31.612Z,999.20
2022-11-15T11:39:31.691Z,999.19
2022-11-15T11:44:31.515Z,999.31
2022-11-15T11:49:31.460Z,999.12
2022-11-15T11:54:36.267Z,999.18
2022-11-15T11:59:31.348Z,999.03
2022-11-15T12:04:31.231Z,999.02
2022-11-15T12:09:31.193Z,998.98
2022-11-15T12:14:31.175Z,998.85
2022-11-15T12:19:31.160Z,998.79
2022-11-15T12:24:31.045Z,998.71
2022-11-15T12:29:30.912Z,998.61
2022-11-15T12:34:30.901Z,998.62
2022-11-15T12:39:30.763Z,998.48
2022-11-15T12:44:30.752Z,998.33
2022-11-15T12:49:30.707Z,998.37
2022-11-15T12:54:30.593Z,998.37
2022-11-15T12:59:30.526Z,998.23
2022-11-15T13:04:30.496Z,998.22
2022-11-15T13:09:30.430Z,998.14
2022-11-15T13:14:30.318Z,998.09
2022-11-15T13:19:30.253Z,997.98
2022-11-15T13:24:30.188Z,998.04
2022-11-15T13:29:30.119Z,998.02
2022-11-15T13:34:51.084Z,998.06
2022-11-15T13:39:30.986Z,998.13
2022-11-15T13:44:29.936Z,998.06
2022-11-15T13:49:29.927Z,998.01
2022-11-15T13:54:29.877Z,997.99
2022-11-15T13:59:29.718Z,997.94
2022-11-15T14:04:29.650Z,997.90
2022-11-15T14:09:29.645Z,997.84
2022-11-15T14:14:29.526Z,997.85
2022-11-15T14:19:29.467Z,997.93
2022-11-15T14:24:29.390Z,997.90
2022-11-15T14:29:29.349Z,997.86
2022-11-15T14:34:29.281Z,997.79
2022-11-15T14:39:29.306Z,997.69
2022-11-15T14:44:29.136Z,997.65
2022-11-15T14:49:29.089Z,997.68
2022-11-15T14:54:29.006Z,997.62
2022-11-15T14:59:29.012Z,997.62
2022-11-15T15:04:28.856Z,997.75
2022-11-15T15:09:28.792Z,997.79
2022-11-15T15:14:29.012Z,997.71
2022-11-15T15:19:28.694Z,997.73
2022-11-15T15:24:28.606Z,997.40
2022-11-15T15:29:28.566Z,997.53
2022-11-15T15:34:28.490Z,997.45
2022-11-15T15:39:28.736Z,997.44
2022-11-15T15:44:28.423Z,997.56
2022-11-15T15:49:28.295Z,997.57
2022-11-15T15:54:28.469Z,997.66
2022-11-15T15:59:28.187Z,997.45
2022-11-15T16:04:28.122Z,997.52
2022-11-15T16:09:28.180Z,997.58
2022-11-15T16:14:28.225Z,997.67
2022-11-15T16:19:27.920Z,997.60
2022-11-15T16:24:27.949Z,997.54
2022-11-15T16:29:27.831Z,997.51
2022-11-15T16:34:31.581Z,997.54
2022-11-15T16:39:28.629Z,997.45
2022-11-15T16:44:27.590Z,997.41
2022-11-15T16:49:27.501Z,997.41
2022-11-15T16:54:27.441Z,997.31
2022-11-15T16:59:27.414Z,997.26
2022-11-15T17:04:27.305Z,997.28
2022-11-15T17:09:27.240Z,997.21
2022-11-15T17:14:27.192Z,997.18
2022-11-15T17:19:27.083Z,997.13
2022-11-15T17:24:34.022Z,997.14
2022-11-15T17:29:27.049Z,997.03
2022-11-15T17:34:26.903Z,997.16
2022-11-15T17:39:26.855Z,997.04
2022-11-15T17:44:26.781Z,997.04
2022-11-15T17:49:26.700Z,997.10
2022-11-15T17:54:26.701Z,997.09
2022-11-15T17:59:26.810Z,996.97
2022-11-15T18:04:26.705Z,997.02
2022-11-15T18:09:26.493Z,996.95
2022-11-15T18:14:26.385Z,996.89
2022-11-15T18:19:26.544Z,996.83
2022-11-15T18:24:26.673Z,996.75
2022-11-15T18:29:26.259Z,996.74
2022-11-15T18:34:26.261Z,996.64
2022-11-15T18:39:26.282Z,996.60
2022-11-15T18:44:26.349Z,996.56
2022-11-15T18:49:26.159Z,996.53
2022-11-15T18:54:30.924Z,996.49
2022-11-15T18:59:27.103Z,996.44
2022-11-15T19:04:25.861Z,996.35
2022-11-15T19:09:25.769Z,996.45
2022-11-15T19:14:25.674Z,996.44
2022-11-15T19:19:25.567Z,996.46
2022-11-15T19:24:25.577Z,996.40
2022-11-15T19:29:25.425Z,996.43
2022-11-15T19:34:25.407Z,996.28
2022-11-15T19:39:26.127Z,996.29
2022-11-15T19:44:25.304Z,996.35
2022-11-15T19:49:25.185Z,996.31
2022-11-15T19:54:25.165Z,996.35
2022-11-15T19:59:25.062Z,996.25
2022-11-15T20:04:25.029Z,996.34
2022-11-15T20:09:24.903Z,996.19
2022-11-15T20:14:25.384Z,996.23
2022-11-15T20:19:26.873Z,996.15
2022-11-15T20:24:24.726Z,996.11
2022-11-15T20:29:24.692Z,996.21
2022-11-15T20:34:24.657Z,996.28
2022-11-15T20:39:24.494Z,996.24
2022-11-15T20:44:24.401Z,996.16
2022-11-15T20:49:24.323Z,996.11
2022-11-15T20:54:24.270Z,996.03
2022-11-15T20:59:24.199Z,995.93
2022-11-15T21:04:24.438Z,995.90
2022-11-15T21:09:24.266Z,995.82
2022-11-15T21:14:24.282Z,995.86
2022-11-15T21:19:28.071Z,995.72
2022-11-15T21:24:24.877Z,995.73
2022-11-15T21:29:24.525Z,995.64
2022-11-15T21:34:24.036Z,995.75
2022-11-15T21:39:23.724Z,995.70
2022-11-15T21:44:23.780Z,995.54
2022-11-15T21:49:23.572Z,995.57
2022-11-15T21:54:23.466Z,995.56
2022-11-15T21:59:23.442Z,995.51
2022-11-15T22:04:23.382Z,995.43
2022-11-15T22:09:23.398Z,995.50
2022-11-15T22:14:23.242Z,995.57
2022-11-15T22:19:23.181Z,995.45
2022-11-15T22:24:23.171Z,995.24
2022-11-15T22:29:23.019Z,995.16
2022-11-15T22:34:23.444Z,995.11
2022-11-15T22:39:22.964Z,995.08
2022-11-15T22:44:23.129Z,994.94
2022-11-15T22:49:22.789Z,994.93
2022-11-15T22:54:22.683Z,994.87
2022-11-15T22:59:22.604Z,994.75
2022-11-15T23:04:22.548Z,994.61
2022-11-15T23:09:22.733Z,994.53
2022-11-15T23:14:22.456Z,994.59
2022-11-15T23:19:22.338Z,994.53
2022-11-15T23:24:22.372Z,994.61
2022-11-15T23:29:22.277Z,994.50
2022-11-15T23:34:22.581Z,994.36
2022-11-15T23:39:22.068Z,994.37
2022-11-15T23:44:22.011Z,994.21
2022-11-15T23:49:21.937Z,994.15
2022-11-15T23:54:21.921Z,994.15
2022-11-15T23:59:21.840Z,994.06
